createdAt,value
2016-04-20T08:27:20.047Z,35
2016-04-20T08:28:22.722Z,35
2016-04-20T08:29:22.896Z,40
2016-04-20T08:30:23.118Z,40
2016-04-20T08:31:22.792Z,40
2016-04-20T08:32:22.794Z,35
2016-04-20T08:33:23.329Z,25
2016-04-20T08:34:24.097Z,20
2016-04-20T08:35:22.912Z,30
2016-04-20T08:36:22.884Z,40
2016-04-20T08:37:22.887Z,45
2016-04-20T08:38:22.920Z,35
2016-04-20T08:39:22.798Z,25
2016-04-20T08:40:22.988Z,20
2016-04-20T08:41:22.976Z,20
2016-04-20T08:42:23.009Z,35
2016-04-20T08:43:23.496Z,25
2016-04-20T08:44:23.031Z,15
2016-04-20T08:45:23.080Z,10
2016-04-20T08:46:23.082Z,10
2016-04-20T08:47:23.101Z,10
2016-04-20T08:48:23.120Z,15
2016-04-20T08:49:23.295Z,20
2016-04-20T08:50:23.187Z,30
2016-04-20T08:51:23.159Z,35
2016-04-20T08:52:23.239Z,35
2016-04-20T08:53:23.242Z,35
2016-04-20T08:54:22.823Z,35
2016-04-20T08:55:23.106Z,50
2016-04-20T08:56:23.313Z,45
2016-04-20T08:57:23.283Z,40
2016-04-20T08:58:23.319Z,35
2016-04-20T08:59:23.211Z,30
2016-04-20T09:00:23.355Z,25
2016-04-20T09:01:23.373Z,20
2016-04-20T09:02:23.407Z,20
2016-04-20T09:03:23.425Z,20
2016-04-20T09:04:23.443Z,25
2016-04-20T09:05:23.462Z,30
2016-04-20T09:06:23.604Z,35
2016-04-20T09:07:23.764Z,30
2016-04-20T09:08:23.532Z,25
2016-04-20T09:09:23.551Z,35
2016-04-20T09:10:23.507Z,40
2016-04-20T09:11:23.760Z,40
2016-04-20T09:12:23.715Z,30
2016-04-20T09:13:23.702Z,30
2016-04-20T09:14:23.752Z,45
2016-04-20T09:15:23.754Z,45
2016-04-20T09:16:23.773Z,45
2016-04-20T09:17:23.775Z,40
2016-04-20T09:18:23.559Z,45
2016-04-20T09:19:23.781Z,45
2016-04-20T09:20:23.799Z,55
2016-04-20T09:21:23.801Z,50
2016-04-20T09:22:23.882Z,45
2016-04-20T09:23:23.822Z,45
2016-04-20T09:24:23.856Z,45
2016-04-20T09:25:23.858Z,40
2016-04-20T09:26:23.846Z,25
2016-04-20T09:27:24.004Z,20
2016-04-20T09:28:24.038Z,30
2016-04-20T09:29:24.026Z,40
2016-04-20T09:30:24.044Z,55
2016-04-20T09:31:24.031Z,50
2016-04-20T09:32:24.018Z,50
2016-04-20T09:33:24.129Z,50
2016-04-20T09:34:24.054Z,50
2016-04-20T09:35:24.088Z,50
2016-04-20T09:36:24.200Z,45
2016-04-20T09:37:24.125Z,45
2016-04-20T09:38:24.142Z,55
2016-04-20T09:39:24.162Z,55
2016-04-20T09:40:24.195Z,50
2016-04-20T09:41:24.214Z,50
2016-04-20T09:42:24.342Z,45
2016-04-20T09:43:24.344Z,45
2016-04-20T09:44:24.253Z,45
2016-04-20T09:45:24.380Z,45
2016-04-20T09:46:24.321Z,50
2016-04-20T09:47:24.495Z,50
2016-04-20T09:48:24.358Z,50
2016-04-20T09:49:24.361Z,45
2016-04-20T09:50:24.394Z,45
2016-04-20T09:51:24.413Z,40
2016-04-20T09:52:24.430Z,40
2016-04-20T09:53:24.465Z,45
2016-04-20T09:54:24.468Z,55
2016-04-20T09:55:24.486Z,55
2016-04-20T09:56:24.379Z,60
2016-04-20T09:57:24.554Z,45
2016-04-20T09:58:24.557Z,45
2016-04-20T09:59:24.590Z,45
2016-04-20T10:00:24.609Z,50
2016-04-20T10:01:24.642Z,50
2016-04-20T10:02:24.676Z,45
2016-04-20T10:03:24.663Z,45
2016-04-20T10:04:24.697Z,45
2016-04-20T10:05:24.715Z,50
2016-04-20T10:06:24.734Z,50
2016-04-20T10:07:24.767Z,50
2016-04-20T10:08:24.817Z,50
2016-04-20T10:09:24.836Z,55
2016-04-20T10:10:24.823Z,55
2016-04-20T10:11:24.857Z,50
2016-04-20T10:12:24.875Z,50
2016-04-20T10:13:24.894Z,45
2016-04-20T10:14:24.990Z,50
2016-04-20T10:15:24.931Z,50
2016-04-20T10:16:25.027Z,45
2016-04-20T10:17:24.967Z,45
2016-04-20T10:18:25.017Z,40
2016-04-20T10:19:25.035Z,40
2016-04-20T10:20:25.053Z,65
2016-04-20T10:21:25.072Z,65
2016-04-20T10:22:25.089Z,55
2016-04-20T10:23:25.124Z,55
2016-04-20T10:24:25.127Z,45
2016-04-20T10:25:25.144Z,40
2016-04-20T10:26:25.163Z,35
2016-04-20T10:27:25.196Z,35
2016-04-20T10:28:25.324Z,35
2016-04-20T10:29:25.249Z,35
2016-04-20T10:30:25.283Z,35
2016-04-20T10:31:25.301Z,35
2016-04-20T10:32:25.398Z,40
2016-04-20T10:33:25.323Z,40
2016-04-20T10:34:25.341Z,40
2016-04-20T10:35:25.500Z,30
2016-04-20T10:36:25.393Z,30
2016-04-20T10:37:25.411Z,25
2016-04-20T10:38:25.429Z,20
2016-04-20T10:39:25.464Z,35
2016-04-20T10:40:25.481Z,40
2016-04-20T10:41:25.735Z,50
2016-04-20T10:42:25.737Z,75
2016-04-20T10:43:25.740Z,75
2016-04-20T10:44:25.648Z,65
2016-04-20T10:45:25.792Z,60
2016-04-20T10:46:25.811Z,50
2016-04-20T10:47:25.704Z,50
2016-04-20T10:48:25.831Z,50
2016-04-20T10:49:25.787Z,50
2016-04-20T10:50:25.836Z,45
2016-04-20T10:51:25.824Z,45
2016-04-20T10:52:25.749Z,40
2016-04-20T10:53:25.891Z,35
2016-04-20T10:54:25.910Z,35
2016-04-20T10:55:25.882Z,40
2016-04-20T10:56:25.900Z,50
2016-04-20T10:57:25.902Z,50
2016-04-20T10:58:25.874Z,45
2016-04-20T10:59:25.923Z,45
2016-04-20T11:00:25.957Z,40
2016-04-20T11:01:25.976Z,35
2016-04-20T11:02:25.979Z,40
2016-04-20T11:03:25.997Z,40
2016-04-20T11:04:26.031Z,40
2016-04-20T11:05:25.924Z,45
2016-04-20T11:06:26.082Z,50
2016-04-20T11:07:26.085Z,55
2016-04-20T11:08:26.104Z,50
2016-04-20T11:09:26.138Z,50
2016-04-20T11:10:26.265Z,30
2016-04-20T11:11:26.300Z,45
2016-04-20T11:12:26.396Z,50
2016-04-20T11:13:26.227Z,50
2016-04-20T11:14:26.370Z,40
2016-04-20T11:15:25.654Z,40
2016-04-20T11:16:25.641Z,50
2016-04-20T11:17:26.394Z,60
2016-04-20T11:18:26.412Z,40
2016-04-20T11:19:26.368Z,35
2016-04-20T11:20:26.418Z,30
2016-04-20T11:21:26.420Z,30
2016-04-20T11:22:26.611Z,25
2016-04-20T11:23:26.425Z,20
2016-04-20T11:24:26.569Z,25
2016-04-20T11:25:26.494Z,30
2016-04-20T11:26:26.652Z,60
2016-04-20T11:27:26.546Z,60
2016-04-20T11:28:26.579Z,40
2016-04-20T11:29:26.598Z,35
2016-04-20T11:30:25.929Z,40
2016-04-20T11:31:26.713Z,30
2016-04-20T11:32:26.747Z,40
2016-04-20T11:33:26.688Z,60
2016-04-20T11:34:26.783Z,50
2016-04-20T11:35:26.818Z,50
2016-04-20T11:36:26.788Z,45
2016-04-20T11:37:26.807Z,45
2016-04-20T11:38:26.810Z,45
2016-04-20T11:39:26.907Z,50
2016-04-20T11:40:26.862Z,55
2016-04-20T11:41:26.865Z,60
2016-04-20T11:42:26.883Z,50
2016-04-20T11:43:26.917Z,35
2016-04-20T11:44:26.934Z,35
2016-04-20T11:45:26.970Z,40
2016-04-20T11:46:27.081Z,30
2016-04-20T11:47:27.005Z,45
2016-04-20T11:48:27.040Z,35
2016-04-20T11:49:27.136Z,50
2016-04-20T11:50:27.123Z,60
2016-04-20T11:51:27.095Z,45
2016-04-20T11:52:27.128Z,35
2016-04-20T11:53:27.241Z,55
2016-04-20T11:54:27.181Z,55
2016-04-20T11:55:27.199Z,45
2016-04-20T11:56:27.327Z,55
2016-04-20T11:57:27.251Z,65
2016-04-20T11:58:27.269Z,60
2016-04-20T11:59:27.351Z,65
2016-04-20T12:00:27.322Z,50
2016-04-20T12:01:27.356Z,50
2016-04-20T12:02:27.374Z,40
2016-04-20T12:03:27.485Z,45
2016-04-20T12:04:27.645Z,70
2016-04-20T12:05:27.664Z,60
2016-04-20T12:06:27.557Z,50
2016-04-20T12:07:27.622Z,60
2016-04-20T12:08:27.499Z,60
2016-04-20T12:09:27.534Z,65
2016-04-20T12:10:27.567Z,65
2016-04-20T12:11:27.586Z,70
2016-04-20T12:12:27.605Z,60
2016-04-20T12:13:27.623Z,55
2016-04-20T12:14:27.782Z,55
2016-04-20T12:15:27.784Z,75
2016-04-20T12:16:27.817Z,65
2016-04-20T12:17:27.837Z,75
2016-04-20T12:18:27.840Z,75
2016-04-20T12:19:27.764Z,75
2016-04-20T12:20:27.657Z,65
2016-04-20T12:21:27.816Z,45
2016-04-20T12:22:27.850Z,50
2016-04-20T12:23:27.869Z,60
2016-04-20T12:24:27.886Z,60
2016-04-20T12:25:27.936Z,50
2016-04-20T12:26:27.954Z,60
2016-04-20T12:27:28.254Z,55
2016-04-20T12:28:28.069Z,50
2016-04-20T12:29:28.025Z,50
2016-04-20T12:30:28.027Z,60
2016-04-20T12:31:28.141Z,65
2016-04-20T12:32:28.251Z,70
2016-04-20T12:33:28.113Z,65
2016-04-20T12:34:28.163Z,70
2016-04-20T12:35:28.182Z,60
2016-04-20T12:36:28.388Z,55
2016-04-20T12:37:28.219Z,60
2016-04-20T12:38:28.237Z,50
2016-04-20T12:39:28.271Z,55
2016-04-20T12:40:28.305Z,55
2016-04-20T12:41:28.308Z,55
2016-04-20T12:42:28.341Z,45
2016-04-20T12:43:28.375Z,55
2016-04-20T12:44:28.503Z,60
2016-04-20T12:45:28.412Z,55
2016-04-20T12:46:28.462Z,65
2016-04-20T12:47:28.605Z,50
2016-04-20T12:48:28.514Z,65
2016-04-20T12:49:28.626Z,55
2016-04-20T12:50:28.534Z,45
2016-04-20T12:51:28.662Z,35
2016-04-20T12:52:28.665Z,35
2016-04-20T12:53:28.667Z,35
2016-04-20T12:54:28.748Z,35
2016-04-20T12:55:28.783Z,40
2016-04-20T12:56:28.692Z,45
2016-04-20T12:57:28.725Z,40
2016-04-20T12:58:28.744Z,45
2016-04-20T12:59:28.794Z,45
2016-04-20T13:00:28.796Z,50
2016-04-20T13:01:28.829Z,45
2016-04-20T13:02:28.848Z,45
2016-04-20T13:03:28.883Z,40
2016-04-20T13:04:28.900Z,35
2016-04-20T13:05:28.919Z,35
2016-04-20T13:06:28.952Z,35
2016-04-20T13:07:28.987Z,35
2016-04-20T13:08:29.005Z,30
2016-04-20T13:09:29.149Z,30
2016-04-20T13:10:29.073Z,35
2016-04-20T13:11:29.075Z,40
2016-04-20T13:12:29.109Z,40
2016-04-20T13:13:29.815Z,40
2016-04-20T13:14:29.334Z,30
2016-04-20T13:15:29.180Z,20
2016-04-20T13:16:29.323Z,20
2016-04-20T13:17:29.342Z,25
2016-04-20T13:18:28.579Z,30
2016-04-20T13:19:29.300Z,35
2016-04-20T13:20:29.318Z,35
2016-04-20T13:21:29.337Z,35
2016-04-20T13:22:29.370Z,50
2016-04-20T13:23:29.451Z,50
2016-04-20T13:24:29.469Z,40
2016-04-20T13:25:29.456Z,40
2016-04-20T13:26:29.553Z,35
2016-04-20T13:27:29.556Z,35
2016-04-20T13:28:29.544Z,40
2016-04-20T13:29:29.561Z,35
2016-04-20T13:30:29.627Z,35
2016-04-20T13:31:29.707Z,40
2016-04-20T13:32:29.711Z,40
2016-04-20T13:33:29.760Z,45
2016-04-20T13:34:29.685Z,55
2016-04-20T13:35:29.749Z,50
2016-04-20T13:36:29.752Z,50
2016-04-20T13:37:29.785Z,60
2016-04-20T13:38:29.914Z,60
2016-04-20T13:39:29.885Z,55
2016-04-20T13:40:29.841Z,50
2016-04-20T13:41:29.860Z,40
2016-04-20T13:42:29.893Z,45
2016-04-20T13:43:29.926Z,40
2016-04-20T13:44:29.946Z,30
2016-04-20T13:45:29.964Z,30
2016-04-20T13:46:30.029Z,35
2016-04-20T13:47:30.140Z,40
2016-04-20T13:48:30.129Z,40
2016-04-20T13:49:30.271Z,40
2016-04-20T13:50:30.306Z,30
2016-04-20T13:51:30.308Z,35
2016-04-20T13:52:30.155Z,35
2016-04-20T13:53:30.189Z,30
2016-04-20T13:54:30.206Z,50
2016-04-20T13:55:30.241Z,50
2016-04-20T13:56:30.259Z,60
2016-04-20T13:57:30.292Z,65
2016-04-20T13:58:30.406Z,70
2016-04-20T13:59:30.408Z,70
2016-04-20T14:00:30.411Z,70
2016-04-20T14:01:30.398Z,60
2016-04-20T14:02:30.447Z,35
2016-04-20T14:03:30.591Z,25
2016-04-20T14:04:30.593Z,40
2016-04-20T14:05:30.580Z,20
2016-04-20T14:06:30.613Z,20
2016-04-20T14:07:30.617Z,20
2016-04-20T14:08:30.697Z,20
2016-04-20T14:09:30.654Z,20
2016-04-20T14:10:30.735Z,25
2016-04-20T14:11:30.674Z,35
2016-04-20T14:12:30.693Z,40
2016-04-20T14:13:30.727Z,25
2016-04-20T14:14:30.761Z,20
2016-04-20T14:15:30.779Z,20
2016-04-20T14:16:30.812Z,20
2016-04-20T14:17:30.846Z,20
2016-04-20T14:18:30.928Z,20
2016-04-20T14:19:30.743Z,20
2016-04-20T14:20:31.012Z,20
2016-04-20T14:21:30.951Z,15
2016-04-20T14:22:30.986Z,15
2016-04-20T14:23:31.004Z,15
2016-04-20T14:24:31.023Z,20
2016-04-20T14:25:31.057Z,20
2016-04-20T14:26:31.091Z,20
2016-04-20T14:27:31.109Z,20
2016-04-20T14:28:31.127Z,20
2016-04-20T14:29:31.162Z,40
2016-04-20T14:30:31.180Z,20
2016-04-20T14:31:31.276Z,15
2016-04-20T14:32:31.278Z,15
2016-04-20T14:33:31.281Z,20
2016-04-20T14:34:31.300Z,30
2016-04-20T14:35:31.443Z,15
2016-04-20T14:36:31.508Z,25
2016-04-20T14:37:31.495Z,20
2016-04-20T14:38:31.483Z,15
2016-04-20T14:39:31.486Z,20
2016-04-20T14:40:31.503Z,20
2016-04-20T14:41:31.506Z,15
2016-04-20T14:42:31.540Z,15
2016-04-20T14:43:31.558Z,35
2016-04-20T14:44:31.561Z,40
2016-04-20T14:45:31.627Z,40
2016-04-20T14:46:31.630Z,40
2016-04-20T14:47:31.757Z,45
2016-04-20T14:48:31.681Z,45
2016-04-20T14:49:31.825Z,45
2016-04-20T14:50:31.780Z,45
2016-04-20T14:51:31.830Z,45
2016-04-20T14:52:32.145Z,45
2016-04-20T14:53:31.819Z,40
2016-04-20T14:54:31.838Z,40
2016-04-20T14:55:31.872Z,30
2016-04-20T14:56:31.906Z,35
2016-04-20T14:57:31.924Z,35
2016-04-20T14:58:32.068Z,35
2016-04-20T14:59:32.086Z,35
2016-04-20T15:00:32.245Z,40
2016-04-20T15:01:32.216Z,40
2016-04-20T15:02:32.234Z,35
2016-04-20T15:03:32.237Z,40
2016-04-20T15:04:32.239Z,40
2016-04-20T15:05:32.258Z,40
2016-04-20T15:06:32.167Z,45
2016-04-20T15:07:32.342Z,45
2016-04-20T15:08:32.329Z,45
2016-04-20T15:09:32.348Z,35
2016-04-20T15:10:32.334Z,35
2016-04-20T15:11:32.353Z,35
2016-04-20T15:12:32.355Z,40
2016-04-20T15:13:32.373Z,35
2016-04-20T15:14:32.391Z,40
2016-04-20T15:15:32.410Z,40
2016-04-20T15:16:32.444Z,45
2016-04-20T15:17:32.540Z,45
2016-04-20T15:18:32.590Z,45
2016-04-20T15:19:32.608Z,45
2016-04-20T15:20:32.580Z,50
2016-04-20T15:21:32.848Z,45
2016-04-20T15:22:32.616Z,40
2016-04-20T15:23:32.650Z,35
2016-04-20T15:24:32.668Z,35
2016-04-20T15:25:32.702Z,30
2016-04-20T15:26:32.737Z,30
2016-04-20T15:27:32.754Z,30
2016-04-20T15:28:32.789Z,30
2016-04-20T15:29:32.823Z,30
2016-04-20T15:30:32.841Z,35
2016-04-20T15:31:32.875Z,35
2016-04-20T15:32:32.893Z,30
2016-04-20T15:33:32.927Z,30
2016-04-20T15:34:32.945Z,30
2016-04-20T15:35:32.979Z,30
2016-04-20T15:36:33.455Z,30
2016-04-20T15:37:33.036Z,30
2016-04-20T15:38:33.070Z,30
2016-04-20T15:39:33.088Z,35
2016-04-20T15:40:33.123Z,35
2016-04-20T15:41:33.156Z,35
2016-04-20T15:42:33.175Z,40
2016-04-20T15:43:33.225Z,40
2016-04-20T15:44:33.228Z,45
2016-04-20T15:45:33.261Z,45
2016-04-20T15:46:33.295Z,40
2016-04-20T15:47:33.314Z,35
2016-04-20T15:48:33.458Z,40
2016-04-20T15:49:33.428Z,40
2016-04-20T15:50:33.431Z,35
2016-04-20T15:51:33.652Z,40
2016-04-20T15:52:33.561Z,40
2016-04-20T15:53:33.564Z,40
2016-04-20T15:54:33.613Z,40
2016-04-20T15:55:33.632Z,30
2016-04-20T15:56:33.634Z,40
2016-04-20T15:57:33.606Z,40
2016-04-20T15:58:33.521Z,40
2016-04-20T15:59:33.846Z,35
2016-04-20T16:00:33.891Z,30
2016-04-20T16:01:33.872Z,30
2016-04-20T16:02:33.979Z,25
2016-04-20T16:03:34.005Z,25
2016-04-20T16:04:33.956Z,20
2016-04-20T16:06:55.941Z,20
2016-04-20T16:07:08.316Z,20
2016-04-20T16:08:08.488Z,20
2016-04-20T16:09:08.605Z,20
2016-04-20T16:10:08.567Z,20
2016-04-20T16:11:08.621Z,20
2016-04-20T16:12:08.630Z,20
2016-04-20T16:13:08.667Z,20
2016-04-20T16:14:08.688Z,20
2016-04-20T16:15:08.724Z,20
2016-04-20T16:16:08.776Z,20
2016-04-20T16:17:08.795Z,20
2016-04-20T16:18:08.831Z,20
2016-04-20T16:19:08.851Z,15
2016-04-20T16:20:09.010Z,20
2016-04-20T16:21:08.920Z,20
2016-04-20T16:22:08.939Z,20
2016-04-20T16:23:08.974Z,20
2016-04-20T16:24:09.007Z,20
2016-04-20T16:25:09.026Z,20
2016-04-20T16:26:09.060Z,15
2016-04-20T16:27:09.079Z,15
2016-04-20T16:28:09.113Z,15
2016-04-20T16:29:09.147Z,15
2016-04-20T16:30:09.166Z,15
2016-04-20T16:31:09.200Z,15
2016-04-20T16:32:09.233Z,15
2016-04-20T16:33:09.283Z,15
2016-04-20T16:34:09.285Z,15
2016-04-20T16:35:09.335Z,15
2016-04-20T16:36:09.354Z,15
2016-04-20T16:37:09.387Z,15
2016-04-20T16:38:09.406Z,15
2016-04-20T16:39:09.455Z,15
2016-04-20T16:40:09.505Z,15
2016-04-20T16:41:09.507Z,15
2016-04-20T16:42:09.354Z,15
2016-04-20T16:43:09.560Z,15
2016-04-20T16:44:09.609Z,15
2016-04-20T16:45:09.612Z,15
2016-04-20T16:46:09.631Z,15
2016-04-20T16:47:09.664Z,15
2016-04-20T16:48:09.698Z,15
2016-04-20T16:49:09.717Z,15
2016-04-20T16:50:09.751Z,10
2016-04-20T16:51:09.801Z,10
2016-04-20T16:52:09.803Z,10
2016-04-20T16:53:09.837Z,10
2016-04-20T16:54:09.886Z,10
2016-04-20T16:55:09.889Z,10
2016-04-20T16:56:09.939Z,10
2016-04-20T16:57:09.972Z,10
2016-04-20T16:58:09.991Z,10
2016-04-20T16:59:10.025Z,10
2016-04-20T17:00:10.044Z,10
2016-04-20T17:01:10.077Z,10
2016-04-20T17:02:10.127Z,10
2016-04-20T17:03:10.129Z,10
2016-04-20T17:04:10.163Z,10
2016-04-20T17:05:10.197Z,10
2016-04-20T17:06:10.216Z,10
2016-04-20T17:07:10.234Z,10
2016-04-20T17:08:10.268Z,10
2016-04-20T17:09:10.318Z,10
2016-04-20T17:10:10.335Z,10
2016-04-20T17:11:10.354Z,5
2016-04-20T17:12:10.404Z,5
2016-04-20T17:13:10.407Z,5
2016-04-20T17:14:10.456Z,5
2016-04-20T17:15:10.490Z,5
2016-04-20T17:16:10.540Z,5
2016-04-20T17:17:10.527Z,5
2016-04-20T17:18:10.560Z,5
2016-04-20T17:19:10.594Z,5
2016-04-20T17:20:10.628Z,5
2016-04-20T17:21:10.662Z,5
2016-04-20T17:22:09.931Z,5
2016-04-20T17:23:10.699Z,5
2016-04-20T17:24:10.748Z,5
2016-04-20T17:25:10.767Z,5
2016-04-20T17:26:10.786Z,5
2016-04-20T17:27:10.819Z,5
2016-04-20T17:28:10.852Z,5
2016-04-20T17:29:10.886Z,5
2016-04-20T17:30:10.922Z,5
2016-04-20T17:31:10.939Z,0
2016-04-20T17:32:10.972Z,0
2016-04-20T17:33:10.992Z,0
2016-04-20T17:34:11.025Z,0
2016-04-20T17:35:11.075Z,0
2016-04-20T17:36:11.078Z,0
2016-04-20T17:37:11.111Z,0
2016-04-20T17:38:11.130Z,0
2016-04-20T17:39:11.195Z,0
2016-04-20T17:40:11.198Z,0
2016-04-20T17:41:11.232Z,0
2016-04-20T17:42:11.266Z,0
2016-04-20T17:43:11.269Z,0
2016-04-20T17:44:11.349Z,0
2016-04-20T17:45:11.337Z,0
2016-04-20T17:46:11.371Z,0
2016-04-20T17:47:11.404Z,0
2016-04-20T17:48:11.423Z,0
2016-04-20T17:49:11.456Z,0
2016-04-20T17:50:11.476Z,0
2016-04-20T17:51:11.509Z,0
2016-04-20T17:52:11.527Z,0
2016-04-20T17:53:11.186Z,0
2016-04-20T17:54:12.773Z,0
2016-04-20T17:55:11.619Z,0
2016-04-20T17:56:11.621Z,0
2016-04-20T17:57:11.671Z,0
2016-04-20T17:58:11.831Z,0
2016-04-20T17:59:11.723Z,0
2016-04-20T18:00:11.742Z,0
2016-04-20T18:01:11.806Z,0
2016-04-20T18:02:11.794Z,0
2016-04-20T18:03:11.844Z,0
2016-04-20T18:04:11.955Z,0
2016-04-20T18:05:11.896Z,0
2016-04-20T18:06:11.898Z,0
2016-04-20T18:07:11.946Z,0
2016-04-20T18:08:11.964Z,0
2016-04-20T18:09:11.999Z,0
2016-04-20T18:10:12.033Z,0
2016-04-20T18:11:12.081Z,0
2016-04-20T18:12:12.101Z,0
2016-04-20T18:13:12.119Z,0
2016-04-20T18:14:12.121Z,0
2016-04-20T18:15:12.155Z,0
2016-04-20T18:16:12.174Z,0
2016-04-20T18:17:12.087Z,0
2016-04-20T18:18:12.246Z,0
2016-04-20T18:19:12.264Z,0
2016-04-20T18:20:12.281Z,0
2016-04-20T18:21:12.332Z,0
2016-04-20T18:22:12.339Z,0
2016-04-20T18:23:12.373Z,0
2016-04-20T18:24:12.439Z,0
2016-04-20T18:25:12.441Z,0
2016-04-20T18:26:12.490Z,0
2016-04-20T18:27:12.462Z,0
2016-04-20T18:28:12.511Z,0
2016-04-20T18:29:12.530Z,0
2016-04-20T18:30:12.564Z,0
2016-04-20T18:31:12.629Z,0
2016-04-20T18:32:12.632Z,0
2016-04-20T18:33:12.635Z,0
2016-04-20T18:34:12.652Z,0
2016-04-20T18:35:12.671Z,0
2016-04-20T18:36:12.705Z,0
2016-04-20T18:37:12.739Z,0
2016-04-20T18:38:12.773Z,0
2016-04-20T18:39:12.791Z,0
2016-04-20T18:40:12.825Z,0
2016-04-20T18:41:12.844Z,0
2016-04-20T18:42:12.877Z,0
2016-04-20T18:43:12.896Z,0
2016-04-20T18:44:12.929Z,0
2016-04-20T18:45:12.948Z,0
2016-04-20T18:46:12.981Z,0
2016-04-20T18:47:13.001Z,0
2016-04-20T18:48:13.065Z,0
2016-04-20T18:49:12.928Z,0
2016-04-20T18:50:13.086Z,0
2016-04-20T18:51:13.089Z,0
2016-04-20T18:52:12.966Z,0
2016-04-20T18:53:13.189Z,0
2016-04-20T18:54:13.191Z,0
2016-04-20T18:55:13.209Z,0
2016-04-20T18:56:13.243Z,0
2016-04-20T18:57:13.277Z,0
2016-04-20T18:58:13.514Z,0
2016-04-20T18:59:13.533Z,0
2016-04-20T19:00:13.550Z,0
2016-04-20T19:01:12.836Z,0
2016-04-20T19:02:13.603Z,0
2016-04-20T19:03:13.683Z,0
2016-04-20T19:04:13.655Z,0
2016-04-20T19:05:13.705Z,0
2016-04-20T19:06:13.708Z,0
2016-04-20T19:07:13.742Z,0
2016-04-20T19:08:13.806Z,0
2016-04-20T19:09:13.777Z,0
2016-04-20T19:10:13.827Z,0
2016-04-20T19:11:13.815Z,0
2016-04-20T19:12:13.864Z,0
2016-04-20T19:13:13.883Z,0
2016-04-20T19:14:13.916Z,0
2016-04-20T19:15:13.919Z,0
2016-04-20T19:16:13.954Z,0
2016-04-20T19:17:13.971Z,0
2016-04-20T19:18:13.989Z,0
2016-04-20T19:19:14.023Z,0
2016-04-20T19:20:14.057Z,0
2016-04-20T19:21:14.076Z,0
2016-04-20T19:22:14.173Z,0
2016-04-20T19:23:14.128Z,0
2016-04-20T19:24:13.928Z,0
2016-04-20T19:25:13.945Z,0
2016-04-20T19:26:13.980Z,0
2016-04-20T19:27:13.998Z,0
2016-04-20T19:28:14.017Z,0
2016-04-20T19:29:14.050Z,0
2016-04-20T19:30:14.069Z,0
2016-04-20T19:31:14.103Z,0
2016-04-20T19:32:14.121Z,0
2016-04-20T19:33:14.140Z,0
2016-04-20T19:34:14.174Z,0
2016-04-20T19:35:14.191Z,0
2016-04-20T19:36:14.225Z,0
2016-04-20T19:37:14.244Z,0
2016-04-20T19:38:14.262Z,0
2016-04-20T19:39:14.297Z,0
2016-04-20T19:40:14.330Z,0
2016-04-20T19:41:14.349Z,0
2016-04-20T19:42:14.383Z,0
2016-04-20T19:43:14.401Z,0
2016-04-20T19:44:14.419Z,0
2016-04-20T19:45:14.453Z,0
2016-04-20T19:46:14.502Z,0
2016-04-20T19:47:14.490Z,0
2016-04-20T19:48:14.524Z,0
2016-04-20T19:49:14.542Z,0
2016-04-20T19:50:14.560Z,0
2016-04-20T19:51:14.579Z,0
2016-04-20T19:52:14.675Z,0
2016-04-20T19:53:14.631Z,0
2016-04-20T19:54:14.664Z,0
2016-04-20T19:55:14.683Z,0
2016-04-20T19:56:14.701Z,0
2016-04-20T19:57:14.720Z,0
2016-04-20T19:58:14.753Z,0
2016-04-20T19:59:14.787Z,0
2016-04-20T20:00:14.806Z,0
2016-04-20T20:01:14.825Z,0
2016-04-20T20:02:14.858Z,0
2016-04-20T20:03:14.877Z,0
2016-04-20T20:04:14.894Z,0
2016-04-20T20:05:14.929Z,0
2016-04-20T20:06:14.963Z,0
2016-04-20T20:07:14.981Z,0
2016-04-20T20:08:15.015Z,0
2016-04-20T20:09:15.018Z,0
2016-04-20T20:10:15.035Z,0
2016-04-20T20:11:15.069Z,0
2016-04-20T20:12:15.089Z,0
2016-04-20T20:13:15.137Z,0
2016-04-20T20:14:15.124Z,0
2016-04-20T20:15:15.159Z,0
2016-04-20T20:16:15.193Z,0
2016-04-20T20:17:15.180Z,0
2016-04-20T20:18:15.260Z,0
2016-04-20T20:19:15.263Z,0
2016-04-20T20:20:15.282Z,0
2016-04-20T20:21:15.284Z,0
2016-04-20T20:22:15.062Z,0
2016-04-20T20:23:15.323Z,0
2016-04-20T20:24:15.357Z,0
2016-04-20T20:25:14.641Z,0
2016-04-20T20:26:15.394Z,0
2016-04-20T20:27:15.443Z,0
2016-04-20T20:28:15.462Z,0
2016-04-20T20:29:15.464Z,0
2016-04-20T20:30:15.497Z,0
2016-04-20T20:31:15.517Z,0
2016-04-20T20:32:15.535Z,0
2016-04-20T20:33:15.569Z,0
2016-04-20T20:34:15.602Z,0
2016-04-20T20:35:15.621Z,0
2016-04-20T20:36:15.655Z,0
2016-04-20T20:37:15.657Z,0
2016-04-20T20:38:15.708Z,0
2016-04-20T20:39:15.710Z,0
2016-04-20T20:40:15.743Z,0
2016-04-20T20:41:15.777Z,0
2016-04-20T20:42:15.780Z,0
2016-04-20T20:43:15.798Z,0
2016-04-20T20:44:15.832Z,0
2016-04-20T20:45:15.851Z,0
2016-04-20T20:46:15.869Z,0
2016-04-20T20:47:15.904Z,0
2016-04-20T20:48:15.921Z,0
2016-04-20T20:49:15.970Z,0
2016-04-20T20:50:15.959Z,0
2016-04-20T20:51:16.008Z,0
2016-04-20T20:52:16.041Z,0
2016-04-20T20:53:16.028Z,0
2016-04-20T20:54:16.048Z,0
2016-04-20T20:55:16.065Z,0
2016-04-20T20:56:16.084Z,0
2016-04-20T20:57:16.117Z,0
2016-04-20T20:58:16.136Z,0
2016-04-20T20:59:16.154Z,0
2016-04-20T21:00:16.189Z,0
2016-04-20T21:01:16.206Z,0
2016-04-20T21:02:16.226Z,0
2016-04-20T21:03:16.259Z,0
2016-04-20T21:04:16.263Z,0
2016-04-20T21:05:16.296Z,0
2016-04-20T21:06:16.315Z,0
2016-04-20T21:07:16.333Z,0
2016-04-20T21:08:16.351Z,0
2016-04-20T21:09:16.385Z,0
2016-04-20T21:10:16.419Z,0
2016-04-20T21:11:16.423Z,0
2016-04-20T21:12:16.439Z,0
2016-04-20T21:13:16.474Z,0
2016-04-20T21:14:16.492Z,0
2016-04-20T21:15:16.511Z,0
2016-04-20T21:16:16.545Z,0
2016-04-20T21:17:16.563Z,0
2016-04-20T21:18:16.581Z,0
2016-04-20T21:19:16.600Z,0
2016-04-20T21:20:16.618Z,0
2016-04-20T21:21:16.636Z,0
2016-04-20T21:22:16.670Z,0
2016-04-20T21:23:15.954Z,0
2016-04-20T21:24:16.707Z,0
2016-04-20T21:25:16.772Z,0
2016-04-20T21:26:16.759Z,0
2016-04-20T21:27:16.777Z,0
2016-04-20T21:28:16.796Z,0
2016-04-20T21:29:16.815Z,0
2016-04-20T21:30:16.848Z,0
2016-04-20T21:31:16.866Z,0
2016-04-20T21:32:16.885Z,0
2016-04-20T21:33:16.903Z,0
2016-04-20T21:34:16.937Z,0
2016-04-20T21:35:16.956Z,0
2016-04-20T21:36:16.958Z,0
2016-04-20T21:37:17.007Z,0
2016-04-20T21:38:17.042Z,0
2016-04-20T21:39:17.029Z,0
2016-04-20T21:40:17.063Z,0
2016-04-20T21:41:17.081Z,0
2016-04-20T21:42:17.099Z,0
2016-04-20T21:43:17.227Z,0
2016-04-20T21:44:17.151Z,0
2016-04-20T21:45:17.186Z,0
2016-04-20T21:46:17.188Z,0
2016-04-20T21:47:17.206Z,0
2016-04-20T21:48:17.318Z,0
2016-04-20T21:49:17.258Z,0
2016-04-20T21:50:17.277Z,0
2016-04-20T21:51:17.295Z,0
2016-04-20T21:52:17.330Z,0
2016-04-20T21:53:17.332Z,0
2016-04-20T21:54:17.366Z,0
2016-04-20T21:55:17.385Z,0
2016-04-20T21:56:17.449Z,0
2016-04-20T21:57:17.421Z,0
2016-04-20T21:58:17.454Z,0
2016-04-20T21:59:17.457Z,0
2016-04-20T22:00:17.476Z,0
2016-04-20T22:01:17.509Z,0
2016-04-20T22:02:17.638Z,0
2016-04-20T22:03:17.545Z,0
2016-04-20T22:04:17.565Z,0
2016-04-20T22:05:17.599Z,0
2016-04-20T22:06:17.632Z,0
2016-04-20T22:07:17.651Z,0
2016-04-20T22:08:17.653Z,0
2016-04-20T22:09:17.687Z,0
2016-04-20T22:10:17.706Z,0
2016-04-20T22:11:17.739Z,0
2016-04-20T22:12:17.742Z,0
2016-04-20T22:13:17.760Z,0
2016-04-20T22:14:17.795Z,0
2016-04-20T22:15:17.813Z,0
2016-04-20T22:16:17.847Z,0
2016-04-20T22:17:17.849Z,0
2016-04-20T22:18:17.884Z,0
2016-04-20T22:19:17.886Z,0
2016-04-20T22:20:17.905Z,0
2016-04-20T22:21:17.938Z,0
2016-04-20T22:22:17.957Z,0
2016-04-20T22:23:17.974Z,0
2016-04-20T22:24:18.008Z,0
2016-04-20T22:25:18.028Z,0
2016-04-20T22:26:18.061Z,0
2016-04-20T22:27:18.064Z,0
2016-04-20T22:28:18.082Z,0
2016-04-20T22:29:18.116Z,0
2016-04-20T22:30:18.197Z,0
2016-04-20T22:31:18.152Z,0
2016-04-20T22:32:18.171Z,0
2016-04-20T22:33:18.189Z,0
2016-04-20T22:34:18.207Z,0
2016-04-20T22:35:18.226Z,0
2016-04-20T22:36:18.259Z,0
2016-04-20T22:37:18.279Z,0
2016-04-20T22:38:18.296Z,0
2016-04-20T22:39:18.315Z,0
2016-04-20T22:40:18.334Z,0
2016-04-20T22:41:18.351Z,0
2016-04-20T22:42:18.386Z,0
2016-04-20T22:43:18.388Z,0
2016-04-20T22:44:18.422Z,0
2016-04-20T22:45:18.425Z,0
2016-04-20T22:46:18.459Z,0
2016-04-20T22:47:18.478Z,0
2016-04-20T22:48:18.510Z,0
2016-04-20T22:49:18.514Z,0
2016-04-20T22:50:18.548Z,0
2016-04-20T22:51:18.566Z,0
2016-04-20T22:52:18.600Z,0
2016-04-20T22:53:18.602Z,0
2016-04-20T22:54:18.621Z,0
2016-04-20T22:55:18.655Z,0